sensor_id;sensor_type;location;lat;lon;timestamp;P1;durP1;ratioP1;P2;durP2;ratioP2
14235;SDS011;7202;50.718;7.072;2023-07-20T00:00:20;8.18;;;3.47;;
14235;SDS011;7202;50.718;7.072;2023-07-20T00:02:49;6.32;;;3.33;;
14235;SDS011;7202;50.718;7.072;2023-07-20T00:05:20;5.88;;;3.03;;
14235;SDS011;7202;50.718;7.072;2023-07-20T00:07:53;5.53;;;2.85;;
14235;SDS011;7202;50.718;7.072;2023-07-20T00:10:21;4.55;;;3.05;;
14235;SDS011;7202;50.718;7.072;2023-07-20T00:12:50;9.90;;;3.17;;
14235;SDS011;7202;50.718;7.072;2023-07-20T00:15:18;5.65;;;3.45;;
14235;SDS011;7202;50.718;7.072;2023-07-20T00:17:47;5.45;;;3.28;;
14235;SDS011;7202;50.718;7.072;2023-07-20T00:20:16;4.82;;;3.05;;
14235;SDS011;7202;50.718;7.072;2023-07-20T00:22:44;6.18;;;3.17;;
14235;SDS011;7202;50.718;7.072;2023-07-20T00:25:14;5.20;;;3.30;;
14235;SDS011;7202;50.718;7.072;2023-07-20T00:27:43;5.78;;;2.83;;
14235;SDS011;7202;50.718;7.072;2023-07-20T00:30:13;5.15;;;2.90;;
14235;SDS011;7202;50.718;7.072;2023-07-20T00:32:45;6.95;;;3.28;;
14235;SDS011;7202;50.718;7.072;2023-07-20T00:35:15;4.45;;;2.92;;
14235;SDS011;7202;50.718;7.072;2023-07-20T00:37:44;3.83;;;2.83;;
14235;SDS011;7202;50.718;7.072;2023-07-20T00:40:12;6.22;;;2.65;;
14235;SDS011;7202;50.718;7.072;2023-07-20T00:42:44;4.03;;;2.83;;
14235;SDS011;7202;50.718;7.072;2023-07-20T00:45:13;4.95;;;3.10;;
14235;SDS011;7202;50.718;7.072;2023-07-20T00:47:41;11.13;;;3.10;;
14235;SDS011;7202;50.718;7.072;2023-07-20T00:50:10;3.85;;;2.67;;
14235;SDS011;7202;50.718;7.072;2023-07-20T00:52:39;3.40;;;2.53;;
14235;SDS011;7202;50.718;7.072;2023-07-20T00:55:07;3.00;;;2.58;;
14235;SDS011;7202;50.718;7.072;2023-07-20T00:57:39;3.60;;;2.63;;
14235;SDS011;7202;50.718;7.072;2023-07-20T01:00:08;5.50;;;2.80;;
14235;SDS011;7202;50.718;7.072;2023-07-20T01:02:38;3.97;;;2.90;;
14235;SDS011;7202;50.718;7.072;2023-07-20T01:05:06;3.60;;;2.63;;
14235;SDS011;7202;50.718;7.072;2023-07-20T01:07:37;3.53;;;2.78;;
14235;SDS011;7202;50.718;7.072;2023-07-20T01:10:12;3.03;;;2.35;;
14235;SDS011;7202;50.718;7.072;2023-07-20T01:12:47;4.18;;;2.65;;
14235;SDS011;7202;50.718;7.072;2023-07-20T01:15:19;6.13;;;2.40;;
14235;SDS011;7202;50.718;7.072;2023-07-20T01:17:48;3.45;;;2.47;;
14235;SDS011;7202;50.718;7.072;2023-07-20T01:20:19;6.78;;;2.53;;
14235;SDS011;7202;50.718;7.072;2023-07-20T01:22:55;4.25;;;2.70;;
14235;SDS011;7202;50.718;7.072;2023-07-20T01:25:52;4.55;;;2.83;;
14235;SDS011;7202;50.718;7.072;2023-07-20T01:28:48;4.57;;;2.63;;
14235;SDS011;7202;50.718;7.072;2023-07-20T01:31:40;6.35;;;2.80;;
14235;SDS011;7202;50.718;7.072;2023-07-20T01:34:11;3.40;;;2.60;;
14235;SDS011;7202;50.718;7.072;2023-07-20T01:36:44;3.65;;;2.70;;
14235;SDS011;7202;50.718;7.072;2023-07-20T01:39:14;3.08;;;2.47;;
14235;SDS011;7202;50.718;7.072;2023-07-20T01:41:43;3.40;;;2.67;;
14235;SDS011;7202;50.718;7.072;2023-07-20T01:44:12;4.65;;;2.75;;
14235;SDS011;7202;50.718;7.072;2023-07-20T01:46:42;5.68;;;2.53;;
14235;SDS011;7202;50.718;7.072;2023-07-20T01:49:11;3.80;;;2.60;;
14235;SDS011;7202;50.718;7.072;2023-07-20T01:51:39;4.72;;;2.85;;
14235;SDS011;7202;50.718;7.072;2023-07-20T01:54:09;3.65;;;2.90;;
14235;SDS011;7202;50.718;7.072;2023-07-20T01:56:37;5.65;;;2.70;;
14235;SDS011;7202;50.718;7.072;2023-07-20T01:59:06;5.22;;;2.60;;
14235;SDS011;7202;50.718;7.072;2023-07-20T02:01:35;5.47;;;3.05;;
14235;SDS011;7202;50.718;7.072;2023-07-20T02:04:05;6.38;;;2.90;;
14235;SDS011;7202;50.718;7.072;2023-07-20T02:06:34;6.15;;;2.90;;
14235;SDS011;7202;50.718;7.072;2023-07-20T02:09:02;4.03;;;2.80;;
14235;SDS011;7202;50.718;7.072;2023-07-20T02:11:31;4.53;;;3.00;;
14235;SDS011;7202;50.718;7.072;2023-07-20T02:14:02;4.63;;;3.20;;
14235;SDS011;7202;50.718;7.072;2023-07-20T02:16:31;4.55;;;2.75;;
14235;SDS011;7202;50.718;7.072;2023-07-20T02:19:00;4.10;;;2.47;;
14235;SDS011;7202;50.718;7.072;2023-07-20T02:21:30;4.10;;;2.80;;
14235;SDS011;7202;50.718;7.072;2023-07-20T02:23:58;4.35;;;2.80;;
14235;SDS011;7202;50.718;7.072;2023-07-20T02:26:27;4.47;;;2.58;;
14235;SDS011;7202;50.718;7.072;2023-07-20T02:28:56;3.40;;;2.47;;
14235;SDS011;7202;50.718;7.072;2023-07-20T02:31:27;4.40;;;2.80;;
14235;SDS011;7202;50.718;7.072;2023-07-20T02:33:56;3.53;;;2.65;;
14235;SDS011;7202;50.718;7.072;2023-07-20T02:36:24;5.75;;;2.63;;
14235;SDS011;7202;50.718;7.072;2023-07-20T02:38:54;3.67;;;2.53;;
14235;SDS011;7202;50.718;7.072;2023-07-20T02:41:23;4.75;;;2.88;;
14235;SDS011;7202;50.718;7.072;2023-07-20T02:43:51;8.52;;;2.92;;
14235;SDS011;7202;50.718;7.072;2023-07-20T02:46:20;5.93;;;2.90;;
14235;SDS011;7202;50.718;7.072;2023-07-20T02:48:49;4.30;;;2.70;;
14235;SDS011;7202;50.718;7.072;2023-07-20T02:51:18;5.00;;;2.80;;
14235;SDS011;7202;50.718;7.072;2023-07-20T02:53:46;5.25;;;2.70;;
14235;SDS011;7202;50.718;7.072;2023-07-20T02:56:16;5.05;;;2.70;;
14235;SDS011;7202;50.718;7.072;2023-07-20T02:58:46;4.70;;;2.38;;
14235;SDS011;7202;50.718;7.072;2023-07-20T03:01:14;3.92;;;2.58;;
14235;SDS011;7202;50.718;7.072;2023-07-20T03:03:43;5.35;;;2.90;;
14235;SDS011;7202;50.718;7.072;2023-07-20T03:06:13;6.20;;;2.85;;
14235;SDS011;7202;50.718;7.072;2023-07-20T03:08:42;5.35;;;2.90;;
14235;SDS011;7202;50.718;7.072;2023-07-20T03:11:14;8.30;;;2.78;;
14235;SDS011;7202;50.718;7.072;2023-07-20T03:13:44;4.38;;;2.67;;
14235;SDS011;7202;50.718;7.072;2023-07-20T03:16:15;5.30;;;3.10;;
14235;SDS011;7202;50.718;7.072;2023-07-20T03:18:47;3.47;;;2.38;;
14235;SDS011;7202;50.718;7.072;2023-07-20T03:21:16;5.20;;;3.10;;
14235;SDS011;7202;50.718;7.072;2023-07-20T03:23:44;6.43;;;3.10;;
14235;SDS011;7202;50.718;7.072;2023-07-20T03:26:13;8.77;;;2.95;;
14235;SDS011;7202;50.718;7.072;2023-07-20T03:28:44;8.18;;;2.67;;
14235;SDS011;7202;50.718;7.072;2023-07-20T03:31:12;3.67;;;3.10;;
14235;SDS011;7202;50.718;7.072;2023-07-20T03:33:42;5.10;;;2.80;;
14235;SDS011;7202;50.718;7.072;2023-07-20T03:36:11;4.63;;;3.05;;
14235;SDS011;7202;50.718;7.072;2023-07-20T03:38:40;5.00;;;3.00;;
14235;SDS011;7202;50.718;7.072;2023-07-20T03:41:08;5.15;;;3.03;;
14235;SDS011;7202;50.718;7.072;2023-07-20T03:43:39;3.35;;;2.38;;
14235;SDS011;7202;50.718;7.072;2023-07-20T03:46:09;5.05;;;3.08;;
14235;SDS011;7202;50.718;7.072;2023-07-20T03:48:38;5.25;;;2.55;;
14235;SDS011;7202;50.718;7.072;2023-07-20T03:51:07;5.32;;;3.08;;
14235;SDS011;7202;50.718;7.072;2023-07-20T03:53:35;3.53;;;2.80;;
14235;SDS011;7202;50.718;7.072;2023-07-20T03:56:04;5.15;;;2.83;;
14235;SDS011;7202;50.718;7.072;2023-07-20T03:58:33;9.50;;;3.00;;
14235;SDS011;7202;50.718;7.072;2023-07-20T04:01:02;5.35;;;2.70;;
14235;SDS011;7202;50.718;7.072;2023-07-20T04:03:32;4.25;;;2.67;;
14235;SDS011;7202;50.718;7.072;2023-07-20T04:06:01;4.97;;;2.92;;
14235;SDS011;7202;50.718;7.072;2023-07-20T04:08:30;5.40;;;2.80;;
14235;SDS011;7202;50.718;7.072;2023-07-20T04:11:00;6.97;;;2.92;;
14235;SDS011;7202;50.718;7.072;2023-07-20T04:13:29;4.45;;;2.47;;
14235;SDS011;7202;50.718;7.072;2023-07-20T04:16:00;5.43;;;3.13;;
14235;SDS011;7202;50.718;7.072;2023-07-20T04:18:29;4.30;;;2.60;;
14235;SDS011;7202;50.718;7.072;2023-07-20T04:20:59;4.28;;;2.75;;
14235;SDS011;7202;50.718;7.072;2023-07-20T04:23:28;3.95;;;2.97;;
14235;SDS011;7202;50.718;7.072;2023-07-20T04:25:57;3.78;;;2.60;;
14235;SDS011;7202;50.718;7.072;2023-07-20T04:28:25;6.18;;;3.00;;
14235;SDS011;7202;50.718;7.072;2023-07-20T04:30:54;4.88;;;2.58;;
14235;SDS011;7202;50.718;7.072;2023-07-20T04:33:23;5.50;;;2.63;;
14235;SDS011;7202;50.718;7.072;2023-07-20T04:35:56;4.38;;;2.75;;
14235;SDS011;7202;50.718;7.072;2023-07-20T04:38:31;3.85;;;2.35;;
14235;SDS011;7202;50.718;7.072;2023-07-20T04:41:11;5.50;;;2.80;;
14235;SDS011;7202;50.718;7.072;2023-07-20T04:43:43;3.88;;;2.72;;
14235;SDS011;7202;50.718;7.072;2023-07-20T04:46:15;3.20;;;2.28;;
14235;SDS011;7202;50.718;7.072;2023-07-20T04:48:45;6.28;;;2.55;;
14235;SDS011;7202;50.718;7.072;2023-07-20T04:51:15;4.00;;;2.50;;
14235;SDS011;7202;50.718;7.072;2023-07-20T04:53:50;5.15;;;2.70;;
14235;SDS011;7202;50.718;7.072;2023-07-20T04:56:19;5.70;;;2.67;;
14235;SDS011;7202;50.718;7.072;2023-07-20T04:58:51;4.30;;;2.40;;
14235;SDS011;7202;50.718;7.072;2023-07-20T05:01:20;6.93;;;2.92;;
14235;SDS011;7202;50.718;7.072;2023-07-20T05:03:49;5.10;;;2.90;;
14235;SDS011;7202;50.718;7.072;2023-07-20T05:06:18;5.40;;;2.78;;
14235;SDS011;7202;50.718;7.072;2023-07-20T05:08:47;10.55;;;3.13;;
14235;SDS011;7202;50.718;7.072;2023-07-20T05:11:17;5.00;;;2.63;;
14235;SDS011;7202;50.718;7.072;2023-07-20T05:13:46;5.00;;;2.83;;
14235;SDS011;7202;50.718;7.072;2023-07-20T05:16:16;6.22;;;2.70;;
14235;SDS011;7202;50.718;7.072;2023-07-20T05:18:44;4.75;;;2.80;;
14235;SDS011;7202;50.718;7.072;2023-07-20T05:21:13;5.47;;;2.50;;
14235;SDS011;7202;50.718;7.072;2023-07-20T05:23:42;4.65;;;2.70;;
14235;SDS011;7202;50.718;7.072;2023-07-20T05:26:13;6.78;;;2.65;;
14235;SDS011;7202;50.718;7.072;2023-07-20T05:28:43;3.95;;;3.13;;
14235;SDS011;7202;50.718;7.072;2023-07-20T05:31:11;6.25;;;3.50;;
14235;SDS011;7202;50.718;7.072;2023-07-20T05:33:40;4.85;;;3.75;;
14235;SDS011;7202;50.718;7.072;2023-07-20T05:36:24;7.20;;;3.50;;
14235;SDS011;7202;50.718;7.072;2023-07-20T05:38:55;10.40;;;5.22;;
14235;SDS011;7202;50.718;7.072;2023-07-20T05:41:24;6.78;;;3.95;;
14235;SDS011;7202;50.718;7.072;2023-07-20T05:43:54;9.68;;;4.32;;
14235;SDS011;7202;50.718;7.072;2023-07-20T05:46:22;7.13;;;5.25;;
14235;SDS011;7202;50.718;7.072;2023-07-20T05:48:57;8.90;;;5.10;;
14235;SDS011;7202;50.718;7.072;2023-07-20T05:51:25;9.93;;;5.60;;
14235;SDS011;7202;50.718;7.072;2023-07-20T05:53:54;8.75;;;5.32;;
14235;SDS011;7202;50.718;7.072;2023-07-20T05:56:23;12.18;;;6.10;;
14235;SDS011;7202;50.718;7.072;2023-07-20T05:58:51;8.00;;;5.72;;
14235;SDS011;7202;50.718;7.072;2023-07-20T06:01:21;10.40;;;5.93;;
14235;SDS011;7202;50.718;7.072;2023-07-20T06:03:50;15.20;;;6.38;;
14235;SDS011;7202;50.718;7.072;2023-07-20T06:06:18;13.77;;;6.38;;
14235;SDS011;7202;50.718;7.072;2023-07-20T06:08:48;7.50;;;5.30;;
14235;SDS011;7202;50.718;7.072;2023-07-20T06:11:17;8.32;;;5.70;;
14235;SDS011;7202;50.718;7.072;2023-07-20T06:13:45;10.27;;;5.15;;
14235;SDS011;7202;50.718;7.072;2023-07-20T06:16:15;9.55;;;5.88;;
14235;SDS011;7202;50.718;7.072;2023-07-20T06:18:44;12.20;;;5.68;;
14235;SDS011;7202;50.718;7.072;2023-07-20T06:21:13;8.05;;;6.28;;
14235;SDS011;7202;50.718;7.072;2023-07-20T06:23:42;11.38;;;5.68;;
14235;SDS011;7202;50.718;7.072;2023-07-20T06:26:10;9.77;;;5.35;;
14235;SDS011;7202;50.718;7.072;2023-07-20T06:28:39;9.07;;;6.03;;
14235;SDS011;7202;50.718;7.072;2023-07-20T06:31:08;14.40;;;6.20;;
14235;SDS011;7202;50.718;7.072;2023-07-20T06:33:38;11.20;;;5.43;;
14235;SDS011;7202;50.718;7.072;2023-07-20T06:36:06;8.77;;;5.13;;
14235;SDS011;7202;50.718;7.072;2023-07-20T06:38:35;9.52;;;5.97;;
14235;SDS011;7202;50.718;7.072;2023-07-20T06:41:03;8.60;;;5.20;;
14235;SDS011;7202;50.718;7.072;2023-07-20T06:43:35;11.50;;;5.43;;
14235;SDS011;7202;50.718;7.072;2023-07-20T06:46:07;8.85;;;5.25;;
14235;SDS011;7202;50.718;7.072;2023-07-20T06:48:35;7.68;;;5.88;;
14235;SDS011;7202;50.718;7.072;2023-07-20T06:51:25;8.15;;;5.38;;
14235;SDS011;7202;50.718;7.072;2023-07-20T06:53:53;9.85;;;6.00;;
14235;SDS011;7202;50.718;7.072;2023-07-20T06:56:22;8.68;;;5.70;;
14235;SDS011;7202;50.718;7.072;2023-07-20T06:58:53;7.38;;;5.03;;
14235;SDS011;7202;50.718;7.072;2023-07-20T07:01:22;8.02;;;5.18;;
14235;SDS011;7202;50.718;7.072;2023-07-20T07:03:51;9.07;;;4.93;;
14235;SDS011;7202;50.718;7.072;2023-07-20T07:06:22;9.18;;;5.43;;
14235;SDS011;7202;50.718;7.072;2023-07-20T07:08:53;9.60;;;4.70;;
14235;SDS011;7202;50.718;7.072;2023-07-20T07:11:22;7.72;;;4.75;;
14235;SDS011;7202;50.718;7.072;2023-07-20T07:13:51;8.52;;;4.95;;
14235;SDS011;7202;50.718;7.072;2023-07-20T07:16:23;6.95;;;4.55;;
14235;SDS011;7202;50.718;7.072;2023-07-20T07:18:52;8.25;;;4.85;;
14235;SDS011;7202;50.718;7.072;2023-07-20T07:21:26;11.57;;;5.45;;
14235;SDS011;7202;50.718;7.072;2023-07-20T07:23:56;8.13;;;5.45;;
14235;SDS011;7202;50.718;7.072;2023-07-20T07:26:26;8.60;;;4.88;;
14235;SDS011;7202;50.718;7.072;2023-07-20T07:28:55;10.13;;;5.90;;
14235;SDS011;7202;50.718;7.072;2023-07-20T07:31:24;6.78;;;5.68;;
14235;SDS011;7202;50.718;7.072;2023-07-20T07:33:53;7.45;;;5.15;;
14235;SDS011;7202;50.718;7.072;2023-07-20T07:36:22;7.13;;;5.10;;
14235;SDS011;7202;50.718;7.072;2023-07-20T07:38:51;6.75;;;4.85;;
14235;SDS011;7202;50.718;7.072;2023-07-20T07:41:24;7.28;;;5.40;;
14235;SDS011;7202;50.718;7.072;2023-07-20T07:43:52;8.15;;;5.47;;
14235;SDS011;7202;50.718;7.072;2023-07-20T07:46:21;6.50;;;4.97;;
14235;SDS011;7202;50.718;7.072;2023-07-20T07:48:50;6.30;;;4.60;;
14235;SDS011;7202;50.718;7.072;2023-07-20T07:51:19;9.18;;;5.13;;
14235;SDS011;7202;50.718;7.072;2023-07-20T07:53:47;6.30;;;4.22;;
14235;SDS011;7202;50.718;7.072;2023-07-20T07:56:17;6.90;;;3.85;;
14235;SDS011;7202;50.718;7.072;2023-07-20T07:58:51;4.93;;;3.85;;
14235;SDS011;7202;50.718;7.072;2023-07-20T08:01:20;7.70;;;4.90;;
14235;SDS011;7202;50.718;7.072;2023-07-20T08:03:49;5.63;;;4.15;;
14235;SDS011;7202;50.718;7.072;2023-07-20T08:06:18;6.70;;;3.70;;
14235;SDS011;7202;50.718;7.072;2023-07-20T08:08:47;4.57;;;3.63;;
14235;SDS011;7202;50.718;7.072;2023-07-20T08:11:16;6.45;;;4.25;;
14235;SDS011;7202;50.718;7.072;2023-07-20T08:13:44;6.50;;;4.07;;
14235;SDS011;7202;50.718;7.072;2023-07-20T08:16:14;6.05;;;3.88;;
14235;SDS011;7202;50.718;7.072;2023-07-20T08:18:43;7.40;;;4.05;;
14235;SDS011;7202;50.718;7.072;2023-07-20T08:21:13;7.68;;;5.35;;
14235;SDS011;7202;50.718;7.072;2023-07-20T08:23:41;10.48;;;4.32;;
14235;SDS011;7202;50.718;7.072;2023-07-20T08:26:10;6.85;;;3.70;;
14235;SDS011;7202;50.718;7.072;2023-07-20T08:28:39;5.00;;;3.30;;
14235;SDS011;7202;50.718;7.072;2023-07-20T08:31:08;6.40;;;3.97;;
14235;SDS011;7202;50.718;7.072;2023-07-20T08:33:38;5.78;;;4.13;;
14235;SDS011;7202;50.718;7.072;2023-07-20T08:36:07;4.97;;;2.95;;
14235;SDS011;7202;50.718;7.072;2023-07-20T08:38:38;4.82;;;2.80;;
14235;SDS011;7202;50.718;7.072;2023-07-20T08:41:06;3.70;;;2.35;;
14235;SDS011;7202;50.718;7.072;2023-07-20T08:43:35;3.83;;;2.90;;
14235;SDS011;7202;50.718;7.072;2023-07-20T08:46:09;3.65;;;2.70;;
14235;SDS011;7202;50.718;7.072;2023-07-20T08:48:43;3.95;;;2.78;;
14235;SDS011;7202;50.718;7.072;2023-07-20T08:51:15;3.85;;;2.38;;
14235;SDS011;7202;50.718;7.072;2023-07-20T08:53:44;5.43;;;3.60;;
14235;SDS011;7202;50.718;7.072;2023-07-20T08:56:15;4.05;;;2.83;;
14235;SDS011;7202;50.718;7.072;2023-07-20T08:58:46;3.60;;;2.70;;
14235;SDS011;7202;50.718;7.072;2023-07-20T09:01:22;3.60;;;2.80;;
14235;SDS011;7202;50.718;7.072;2023-07-20T09:03:52;6.40;;;2.50;;
14235;SDS011;7202;50.718;7.072;2023-07-20T09:06:21;5.53;;;2.65;;
14235;SDS011;7202;50.718;7.072;2023-07-20T09:08:50;5.35;;;2.67;;
14235;SDS011;7202;50.718;7.072;2023-07-20T09:11:19;4.30;;;2.33;;
14235;SDS011;7202;50.718;7.072;2023-07-20T09:13:47;4.25;;;2.33;;
14235;SDS011;7202;50.718;7.072;2023-07-20T09:16:20;2.08;;;1.75;;
14235;SDS011;7202;50.718;7.072;2023-07-20T09:18:49;3.75;;;2.10;;
14235;SDS011;7202;50.718;7.072;2023-07-20T09:21:19;4.03;;;2.00;;
14235;SDS011;7202;50.718;7.072;2023-07-20T09:23:48;2.33;;;1.77;;
14235;SDS011;7202;50.718;7.072;2023-07-20T09:26:20;2.40;;;1.80;;
14235;SDS011;7202;50.718;7.072;2023-07-20T09:28:50;2.33;;;1.90;;
14235;SDS011;7202;50.718;7.072;2023-07-20T09:31:21;3.92;;;1.80;;
14235;SDS011;7202;50.718;7.072;2023-07-20T09:33:52;1.70;;;1.50;;
14235;SDS011;7202;50.718;7.072;2023-07-20T09:36:27;3.28;;;1.80;;
14235;SDS011;7202;50.718;7.072;2023-07-20T09:38:59;2.53;;;1.83;;
14235;SDS011;7202;50.718;7.072;2023-07-20T09:41:31;3.05;;;1.65;;
14235;SDS011;7202;50.718;7.072;2023-07-20T09:44:12;5.35;;;2.45;;
14235;SDS011;7202;50.718;7.072;2023-07-20T09:46:45;2.22;;;2.00;;
14235;SDS011;7202;50.718;7.072;2023-07-20T09:49:17;3.38;;;1.88;;
14235;SDS011;7202;50.718;7.072;2023-07-20T09:51:50;3.63;;;2.05;;
14235;SDS011;7202;50.718;7.072;2023-07-20T09:54:21;3.05;;;1.98;;
14235;SDS011;7202;50.718;7.072;2023-07-20T09:56:50;3.08;;;1.80;;
14235;SDS011;7202;50.718;7.072;2023-07-20T09:59:20;3.60;;;1.80;;
14235;SDS011;7202;50.718;7.072;2023-07-20T10:01:48;1.70;;;1.60;;
14235;SDS011;7202;50.718;7.072;2023-07-20T10:04:18;3.40;;;1.88;;
14235;SDS011;7202;50.718;7.072;2023-07-20T10:06:50;7.15;;;2.00;;
14235;SDS011;7202;50.718;7.072;2023-07-20T10:09:24;2.22;;;1.98;;
14235;SDS011;7202;50.718;7.072;2023-07-20T10:11:53;4.22;;;1.70;;
14235;SDS011;7202;50.718;7.072;2023-07-20T10:14:43;6.25;;;4.38;;
14235;SDS011;7202;50.718;7.072;2023-07-20T10:17:18;2.67;;;2.17;;
14235;SDS011;7202;50.718;7.072;2023-07-20T10:19:48;2.75;;;2.10;;
14235;SDS011;7202;50.718;7.072;2023-07-20T10:22:26;3.90;;;1.85;;
14235;SDS011;7202;50.718;7.072;2023-07-20T10:24:57;4.13;;;1.80;;
14235;SDS011;7202;50.718;7.072;2023-07-20T10:27:27;3.33;;;1.80;;
14235;SDS011;7202;50.718;7.072;2023-07-20T10:29:56;5.65;;;2.13;;
14235;SDS011;7202;50.718;7.072;2023-07-20T10:32:27;3.70;;;2.58;;
14235;SDS011;7202;50.718;7.072;2023-07-20T10:34:57;4.82;;;1.65;;
14235;SDS011;7202;50.718;7.072;2023-07-20T10:40:25;2.83;;;1.85;;
14235;SDS011;7202;50.718;7.072;2023-07-20T10:42:59;3.92;;;1.90;;
14235;SDS011;7202;50.718;7.072;2023-07-20T10:48:18;1.92;;;1.73;;
14235;SDS011;7202;50.718;7.072;2023-07-20T10:53:43;2.03;;;1.85;;
14235;SDS011;7202;50.718;7.072;2023-07-20T10:56:12;2.40;;;1.52;;
14235;SDS011;7202;50.718;7.072;2023-07-20T10:58:41;2.60;;;1.38;;
14235;SDS011;7202;50.718;7.072;2023-07-20T11:01:13;1.90;;;1.45;;
14235;SDS011;7202;50.718;7.072;2023-07-20T11:03:42;2.25;;;1.52;;
14235;SDS011;7202;50.718;7.072;2023-07-20T11:06:29;8.40;;;1.95;;
14235;SDS011;7202;50.718;7.072;2023-07-20T11:09:08;2.10;;;1.77;;
14235;SDS011;7202;50.718;7.072;2023-07-20T11:11:42;2.30;;;2.10;;
14235;SDS011;7202;50.718;7.072;2023-07-20T11:14:20;4.25;;;1.73;;
14235;SDS011;7202;50.718;7.072;2023-07-20T11:16:50;2.30;;;1.88;;
14235;SDS011;7202;50.718;7.072;2023-07-20T11:19:20;4.55;;;1.80;;
14235;SDS011;7202;50.718;7.072;2023-07-20T11:21:53;2.78;;;1.70;;
14235;SDS011;7202;50.718;7.072;2023-07-20T11:24:31;2.22;;;1.70;;
14235;SDS011;7202;50.718;7.072;2023-07-20T11:27:00;2.17;;;1.50;;
14235;SDS011;7202;50.718;7.072;2023-07-20T11:29:29;2.40;;;1.60;;
14235;SDS011;7202;50.718;7.072;2023-07-20T11:32:00;2.92;;;1.92;;
14235;SDS011;7202;50.718;7.072;2023-07-20T11:34:32;2.35;;;1.88;;
14235;SDS011;7202;50.718;7.072;2023-07-20T11:37:02;2.97;;;1.60;;
14235;SDS011;7202;50.718;7.072;2023-07-20T11:39:35;2.40;;;1.75;;
14235;SDS011;7202;50.718;7.072;2023-07-20T11:42:04;2.17;;;1.50;;
14235;SDS011;7202;50.718;7.072;2023-07-20T11:44:33;2.53;;;1.70;;
14235;SDS011;7202;50.718;7.072;2023-07-20T11:47:02;3.25;;;1.70;;
14235;SDS011;7202;50.718;7.072;2023-07-20T11:49:34;5.22;;;1.58;;
14235;SDS011;7202;50.718;7.072;2023-07-20T11:52:05;1.70;;;1.60;;
14235;SDS011;7202;50.718;7.072;2023-07-20T11:54:37;4.57;;;1.77;;
14235;SDS011;7202;50.718;7.072;2023-07-20T11:57:15;4.05;;;1.60;;
14235;SDS011;7202;50.718;7.072;2023-07-20T11:59:52;2.70;;;1.70;;
14235;SDS011;7202;50.718;7.072;2023-07-20T12:02:21;1.65;;;1.50;;
14235;SDS011;7202;50.718;7.072;2023-07-20T12:04:51;2.90;;;1.52;;
14235;SDS011;7202;50.718;7.072;2023-07-20T12:07:22;2.40;;;1.75;;
14235;SDS011;7202;50.718;7.072;2023-07-20T12:10:04;4.65;;;1.90;;
14235;SDS011;7202;50.718;7.072;2023-07-20T12:12:33;2.47;;;1.40;;
14235;SDS011;7202;50.718;7.072;2023-07-20T12:15:15;6.00;;;2.00;;
14235;SDS011;7202;50.718;7.072;2023-07-20T12:17:44;3.33;;;1.60;;
14235;SDS011;7202;50.718;7.072;2023-07-20T12:20:24;5.38;;;1.92;;
14235;SDS011;7202;50.718;7.072;2023-07-20T12:22:55;1.50;;;1.30;;
14235;SDS011;7202;50.718;7.072;2023-07-20T12:25:33;1.52;;;1.40;;
14235;SDS011;7202;50.718;7.072;2023-07-20T12:28:05;2.60;;;1.50;;
14235;SDS011;7202;50.718;7.072;2023-07-20T12:30:34;1.98;;;1.20;;
14235;SDS011;7202;50.718;7.072;2023-07-20T12:33:04;3.72;;;1.42;;
14235;SDS011;7202;50.718;7.072;2023-07-20T12:35:33;3.45;;;1.83;;
14235;SDS011;7202;50.718;7.072;2023-07-20T12:38:01;2.67;;;1.40;;
14235;SDS011;7202;50.718;7.072;2023-07-20T12:40:30;1.85;;;1.38;;
14235;SDS011;7202;50.718;7.072;2023-07-20T12:43:00;3.17;;;1.40;;
14235;SDS011;7202;50.718;7.072;2023-07-20T12:45:28;3.55;;;1.50;;
14235;SDS011;7202;50.718;7.072;2023-07-20T12:47:57;3.50;;;1.35;;
14235;SDS011;7202;50.718;7.072;2023-07-20T12:50:26;3.33;;;1.35;;
14235;SDS011;7202;50.718;7.072;2023-07-20T12:52:55;1.75;;;1.30;;
14235;SDS011;7202;50.718;7.072;2023-07-20T12:55:24;4.32;;;1.30;;
14235;SDS011;7202;50.718;7.072;2023-07-20T12:57:52;1.85;;;1.40;;
14235;SDS011;7202;50.718;7.072;2023-07-20T13:00:22;4.53;;;1.80;;
14235;SDS011;7202;50.718;7.072;2023-07-20T13:02:51;1.67;;;1.50;;
14235;SDS011;7202;50.718;7.072;2023-07-20T13:05:24;2.85;;;1.40;;
14235;SDS011;7202;50.718;7.072;2023-07-20T13:07:56;1.80;;;1.40;;
14235;SDS011;7202;50.718;7.072;2023-07-20T13:10:28;2.95;;;1.30;;
14235;SDS011;7202;50.718;7.072;2023-07-20T13:12:56;4.38;;;1.50;;
14235;SDS011;7202;50.718;7.072;2023-07-20T13:15:30;1.95;;;1.25;;
14235;SDS011;7202;50.718;7.072;2023-07-20T13:17:59;1.70;;;1.23;;
14235;SDS011;7202;50.718;7.072;2023-07-20T13:20:28;2.45;;;1.35;;
14235;SDS011;7202;50.718;7.072;2023-07-20T13:22:57;1.73;;;1.60;;
14235;SDS011;7202;50.718;7.072;2023-07-20T13:25:25;2.55;;;1.65;;
14235;SDS011;7202;50.718;7.072;2023-07-20T13:27:54;2.92;;;1.77;;
14235;SDS011;7202;50.718;7.072;2023-07-20T13:30:23;2.17;;;1.40;;
14235;SDS011;7202;50.718;7.072;2023-07-20T13:32:53;2.47;;;1.40;;
14235;SDS011;7202;50.718;7.072;2023-07-20T13:35:21;1.80;;;1.35;;
14235;SDS011;7202;50.718;7.072;2023-07-20T13:37:50;1.20;;;1.10;;
14235;SDS011;7202;50.718;7.072;2023-07-20T13:40:19;3.20;;;1.30;;
14235;SDS011;7202;50.718;7.072;2023-07-20T13:42:49;1.83;;;1.67;;
14235;SDS011;7202;50.718;7.072;2023-07-20T13:45:18;2.47;;;1.30;;
14235;SDS011;7202;50.718;7.072;2023-07-20T13:47:47;1.25;;;0.98;;
14235;SDS011;7202;50.718;7.072;2023-07-20T13:50:18;5.57;;;1.20;;
14235;SDS011;7202;50.718;7.072;2023-07-20T13:52:53;2.60;;;1.40;;
14235;SDS011;7202;50.718;7.072;2023-07-20T13:55:24;2.72;;;1.40;;
14235;SDS011;7202;50.718;7.072;2023-07-20T13:57:57;1.48;;;1.20;;
14235;SDS011;7202;50.718;7.072;2023-07-20T14:00:26;1.42;;;1.27;;
14235;SDS011;7202;50.718;7.072;2023-07-20T14:03:00;2.88;;;1.20;;
14235;SDS011;7202;50.718;7.072;2023-07-20T14:05:33;1.73;;;1.15;;
14235;SDS011;7202;50.718;7.072;2023-07-20T14:08:05;3.58;;;1.23;;
14235;SDS011;7202;50.718;7.072;2023-07-20T14:10:33;4.72;;;1.45;;
14235;SDS011;7202;50.718;7.072;2023-07-20T14:13:22;4.22;;;1.60;;
14235;SDS011;7202;50.718;7.072;2023-07-20T14:16:10;3.13;;;1.40;;
14235;SDS011;7202;50.718;7.072;2023-07-20T14:18:39;1.88;;;1.30;;
14235;SDS011;7202;50.718;7.072;2023-07-20T14:21:10;1.60;;;1.02;;
14235;SDS011;7202;50.718;7.072;2023-07-20T14:23:38;1.83;;;1.20;;
14235;SDS011;7202;50.718;7.072;2023-07-20T14:26:07;5.05;;;1.88;;
14235;SDS011;7202;50.718;7.072;2023-07-20T14:28:37;6.45;;;1.38;;
14235;SDS011;7202;50.718;7.072;2023-07-20T14:31:05;3.13;;;1.40;;
14235;SDS011;7202;50.718;7.072;2023-07-20T14:33:34;1.20;;;1.10;;
14235;SDS011;7202;50.718;7.072;2023-07-20T14:36:03;1.48;;;1.30;;
14235;SDS011;7202;50.718;7.072;2023-07-20T14:38:33;1.40;;;1.08;;
14235;SDS011;7202;50.718;7.072;2023-07-20T14:41:03;2.33;;;1.40;;
14235;SDS011;7202;50.718;7.072;2023-07-20T14:43:33;1.95;;;1.08;;
14235;SDS011;7202;50.718;7.072;2023-07-20T14:46:02;2.15;;;1.30;;
14235;SDS011;7202;50.718;7.072;2023-07-20T14:48:31;1.25;;;1.00;;
14235;SDS011;7202;50.718;7.072;2023-07-20T14:51:01;2.13;;;1.30;;
14235;SDS011;7202;50.718;7.072;2023-07-20T14:53:32;2.92;;;1.40;;
14235;SDS011;7202;50.718;7.072;2023-07-20T14:56:03;5.60;;;1.75;;
14235;SDS011;7202;50.718;7.072;2023-07-20T14:58:32;1.90;;;1.50;;
14235;SDS011;7202;50.718;7.072;2023-07-20T15:01:02;2.20;;;1.40;;
14235;SDS011;7202;50.718;7.072;2023-07-20T15:03:31;2.80;;;1.30;;
14235;SDS011;7202;50.718;7.072;2023-07-20T15:06:00;2.53;;;1.08;;
14235;SDS011;7202;50.718;7.072;2023-07-20T15:08:29;2.45;;;1.27;;
14235;SDS011;7202;50.718;7.072;2023-07-20T15:11:00;4.53;;;1.30;;
14235;SDS011;7202;50.718;7.072;2023-07-20T15:13:29;1.67;;;1.23;;
14235;SDS011;7202;50.718;7.072;2023-07-20T15:15:57;1.90;;;1.08;;
14235;SDS011;7202;50.718;7.072;2023-07-20T15:18:26;6.65;;;1.80;;
14235;SDS011;7202;50.718;7.072;2023-07-20T15:21:16;1.27;;;1.17;;
14235;SDS011;7202;50.718;7.072;2023-07-20T15:23:44;4.57;;;1.40;;
14235;SDS011;7202;50.718;7.072;2023-07-20T15:26:15;2.92;;;1.17;;
14235;SDS011;7202;50.718;7.072;2023-07-20T15:28:43;2.25;;;1.33;;